EKOD/ODE METAR and TAF weather

Enter ICAO airport designator
Station Type Date Time Source
EKOD METAR 2023/01/29 13:50 UTC NOAA

EKOD 291350Z 24018KT 9999 BKN030 06/03 Q1013


Station Type Date Time Source
EKOD Decoded METAR 2023/01/29 13:50 UTC NOAA

Odense / Beldringe, Denmark (EKOD) 55-29N 010-20E 17M
Jan 29, 2023 - 08:50 AM EST / 2023.01.29 1350 UTC
Wind: from the WSW (240 degrees) at 21 MPH (18 KT):0
Visibility: greater than 7 mile(s):0
Sky conditions: mostly cloudy
Temperature: 42 F (6 C)
Dew Point: 37 F (3 C)
Relative Humidity: 81%
Pressure (altimeter): 29.91 in. Hg (1013 hPa)
ob: EKOD 291350Z 24018KT 9999 BKN030 06/03 Q1013
cycle: 14

Station Type Date Time Source
EKOD TAF 2015/04/20 17:00 UTC NOAA

TAF
AMD EKOD 201701Z 2017/2018 CNL

Example: see airport list